»·PEaware :: DCM9519 KBIL-KDEN

DCM9519 :: KBIL-KDEN

FLIGHT INFORMATION

Flight Status: Arrived
Operator: Unknown
More flights by this operator :: More flights under this callsign
Pilot: Joe C. (19058)
Aircraft: BOMBARDIER BD-100 CHALLENGER 300
(CL30)
More flights by this aircraft type
Origin: KBIL Billings Logan Intl
United States
Destination: KDEN Denver Intl
United States
More flights between these airports :: More routes between these airports
Route: +BIL GAITZ GRYNS RICCO OPPEE MOLTN3
File this flight plan on PilotEdge
Remarks:
Altitude:
(Current/Filed)
45,000ft
Speed:
(Current/Filed)
450kts
Departed: 02-Sep-18 03:26 PM
Arrived: 02-Sep-18 04:41 PM
Distance/Time
Traveled:
397nm/1:15
Distance/Time
To Go:
Arrived

Flight Plot

Page will automatically refresh every two minutes.

Flight plan parsing failed; only flown route is shown


Map Options




Map Legend


Flown Route
Filed Route
Departure Airport
Arrival Airport
Navaid (VOR, NDB)
Fix

Horizontal Profiles

Position Reports

Time Latitude Longitude Heading Altitude Ground
Speed
02-Sep-18 15:06 45.803485 -108.547021 270 3658ft 0kts
02-Sep-18 15:07 45.803485 -108.547021 270 3658ft 0kts
02-Sep-18 15:08 45.803485 -108.547021 270 3658ft 0kts
02-Sep-18 15:09 45.803485 -108.547021 270 3658ft 0kts
02-Sep-18 15:10 45.803485 -108.547021 270 3658ft 0kts
02-Sep-18 15:11 45.803485 -108.547021 270 3658ft 0kts
02-Sep-18 15:12 45.803485 -108.547021 270 3658ft 0kts
02-Sep-18 15:13 45.803485 -108.547021 270 3658ft 0kts
02-Sep-18 15:14 45.803485 -108.547021 270 3658ft 0kts
02-Sep-18 15:15 45.803485 -108.547021 270 3658ft 0kts
02-Sep-18 15:16 45.803485 -108.547021 270 3658ft 0kts
02-Sep-18 15:17 45.803485 -108.547021 270 3658ft 0kts
02-Sep-18 15:18 45.803485 -108.547021 270 3658ft 0kts
02-Sep-18 15:19 45.804055 -108.547132 357 3657ft 7kts
02-Sep-18 15:20 45.804071 -108.547133 357 3657ft 0kts
02-Sep-18 15:21 45.804582 -108.547189 354 3657ft 15kts
02-Sep-18 15:22 45.805582 -108.540683 134 3658ft 20kts
02-Sep-18 15:23 45.804775 -108.532591 92 3657ft 27kts
02-Sep-18 15:24 45.802494 -108.522444 111 3658ft 29kts
02-Sep-18 15:25 45.801208 -108.517401 60 3657ft 0kts
02-Sep-18 15:26 45.801209 -108.517400 60 3657ft 0kts
02-Sep-18 15:27 45.808058 -108.538493 291 3845ft 163kts
02-Sep-18 15:28 45.828515 -108.617675 290 6367ft 254kts
02-Sep-18 15:29 45.855542 -108.717693 290 10688ft 295kts
02-Sep-18 15:30 45.889972 -108.834508 283 14552ft 328kts
02-Sep-18 15:31 45.837538 -108.918784 178 18118ft 356kts
02-Sep-18 15:32 45.772630 -108.810401 113 21009ft 403kts
02-Sep-18 15:33 45.706729 -108.684154 142 23523ft 409kts
02-Sep-18 15:34 45.620637 -108.573297 141 25733ft 426kts
02-Sep-18 15:35 45.531320 -108.457738 141 27700ft 441kts
02-Sep-18 15:37 45.441036 -108.341230 142 29402ft 455kts
02-Sep-18 15:38 45.345936 -108.219033 142 30932ft 467kts
02-Sep-18 15:39 45.248563 -108.095124 145 32504ft 471kts
02-Sep-18 15:40 45.141661 -107.991109 151 34236ft 466kts
02-Sep-18 15:41 45.035927 -107.889174 142 36192ft 459kts
02-Sep-18 15:42 44.945997 -107.763686 136 38035ft 451kts
02-Sep-18 15:43 44.858121 -107.638081 135 39351ft 452kts
02-Sep-18 15:44 44.769948 -107.512206 135 40608ft 452kts
02-Sep-18 15:45 44.681751 -107.386777 135 41770ft 452kts
02-Sep-18 15:46 44.593662 -107.262062 136 42827ft 452kts
02-Sep-18 15:47 44.505268 -107.137480 136 43795ft 452kts
02-Sep-18 15:48 44.416678 -107.013206 136 44699ft 451kts
02-Sep-18 15:49 44.327680 -106.888945 136 45074ft 463kts
02-Sep-18 15:50 44.234781 -106.759786 135 45079ft 483kts
02-Sep-18 15:51 44.138367 -106.626378 135 45074ft 493kts
02-Sep-18 15:52 44.040646 -106.494785 143 45069ft 486kts
02-Sep-18 15:53 43.917483 -106.427870 170 45077ft 482kts
02-Sep-18 15:54 43.785522 -106.399077 173 45097ft 480kts
02-Sep-18 15:55 43.653795 -106.374971 174 45121ft 480kts
02-Sep-18 15:56 43.521800 -106.351744 174 45129ft 480kts
02-Sep-18 15:57 43.389658 -106.328711 175 45127ft 480kts
02-Sep-18 15:58 43.257628 -106.305825 175 45127ft 480kts
02-Sep-18 15:59 43.125721 -106.283061 175 45128ft 480kts
02-Sep-18 16:00 42.993058 -106.275496 181 45129ft 476kts
02-Sep-18 16:01 42.862656 -106.272620 180 45126ft 466kts
02-Sep-18 16:02 42.733232 -106.269926 180 45126ft 468kts
02-Sep-18 16:03 42.624385 -106.267745 180 45126ft 469kts
02-Sep-18 16:04 42.494720 -106.265175 180 45128ft 468kts
02-Sep-18 16:05 42.364801 -106.262617 180 45128ft 468kts
02-Sep-18 16:06 42.235255 -106.260068 180 45128ft 468kts
02-Sep-18 16:07 42.105595 -106.257492 180 45195ft 468kts
02-Sep-18 16:08 41.977992 -106.254997 180 44745ft 456kts
02-Sep-18 16:09 41.851319 -106.252544 180 42997ft 456kts
02-Sep-18 16:10 41.727336 -106.250158 180 41192ft 441kts
02-Sep-18 16:11 41.604282 -106.247797 180 39425ft 451kts
02-Sep-18 16:12 41.480615 -106.244716 176 37690ft 442kts
02-Sep-18 16:13 41.363599 -106.202637 163 35781ft 432kts
02-Sep-18 16:14 41.250584 -106.154971 163 33978ft 427kts
02-Sep-18 16:15 41.138327 -106.106875 160 32266ft 418kts
02-Sep-18 16:16 41.033805 -106.048282 158 30544ft 401kts
02-Sep-18 16:16 40.950201 -106.000961 158 29198ft 386kts
02-Sep-18 16:18 40.861777 -105.899707 130 27565ft 362kts
02-Sep-18 16:19 40.801753 -105.795292 128 26384ft 358kts
02-Sep-18 16:20 40.742778 -105.689656 128 25291ft 357kts
02-Sep-18 16:20 40.693910 -105.601607 128 24380ft 356kts
02-Sep-18 16:21 40.635898 -105.497150 127 23059ft 351kts
02-Sep-18 16:22 40.579498 -105.395004 127 21554ft 340kts
02-Sep-18 16:23 40.525212 -105.296198 127 20054ft 330kts
02-Sep-18 16:24 40.460990 -105.215805 147 18695ft 320kts
02-Sep-18 16:25 40.386063 -105.152938 148 17398ft 320kts
02-Sep-18 16:26 40.311173 -105.092159 148 16250ft 313kts
02-Sep-18 16:27 40.238563 -105.033884 148 15241ft 303kts
02-Sep-18 16:28 40.166125 -104.975718 148 14242ft 307kts
02-Sep-18 16:29 40.093443 -104.917545 147 13238ft 304kts
02-Sep-18 16:30 40.023541 -104.861753 147 12216ft 286kts
02-Sep-18 16:31 39.954081 -104.811452 171 11967ft 287kts
02-Sep-18 16:32 39.878004 -104.808131 176 11256ft 263kts
02-Sep-18 16:33 39.806181 -104.805717 176 9938ft 258kts
02-Sep-18 16:34 39.735015 -104.806113 180 9021ft 257kts
02-Sep-18 16:35 39.664588 -104.811533 168 8998ft 248kts
02-Sep-18 16:36 39.645135 -104.740119 87 9018ft 232kts
02-Sep-18 16:37 39.673693 -104.669721 57 8854ft 218kts
02-Sep-18 16:38 39.724173 -104.659810 359 7999ft 158kts
02-Sep-18 16:39 39.764272 -104.661488 3 6737ft 134kts
02-Sep-18 16:40 39.803051 -104.661292 3 6044ft 144kts
02-Sep-18 16:41 39.839978 -104.660374 1 5441ft 85kts
02-Sep-18 16:42 39.848874 -104.662352 205 5441ft 20kts
02-Sep-18 16:43 39.842222 -104.662486 179 5441ft 38kts
02-Sep-18 16:44 39.838667 -104.665363 185 5441ft 0kts

Navigation Log

Ident Type
Flight plan parsing failed, navigation log unavailable